sensor_id;sensor_type;location;lat;lon;timestamp;temperature;humidity
24410;DHT22;12543;53.364;-1.504;2022-12-18T00:01:34;2.20;99.90
24410;DHT22;12543;53.364;-1.504;2022-12-18T00:04:04;2.20;99.90
24410;DHT22;12543;53.364;-1.504;2022-12-18T00:06:32;2.10;99.90
24410;DHT22;12543;53.364;-1.504;2022-12-18T00:09:01;2.10;99.90
24410;DHT22;12543;53.364;-1.504;2022-12-18T00:11:30;2.10;99.90
24410;DHT22;12543;53.364;-1.504;2022-12-18T00:13:59;2.10;99.90
24410;DHT22;12543;53.364;-1.504;2022-12-18T00:16:28;2.10;99.90
24410;DHT22;12543;53.364;-1.504;2022-12-18T00:18:57;2.10;99.90
24410;DHT22;12543;53.364;-1.504;2022-12-18T00:21:25;2.10;99.90
24410;DHT22;12543;53.364;-1.504;2022-12-18T00:23:52;2.10;99.90
24410;DHT22;12543;53.364;-1.504;2022-12-18T00:26:24;2.10;99.90
24410;DHT22;12543;53.364;-1.504;2022-12-18T00:28:59;2.10;99.90
24410;DHT22;12543;53.364;-1.504;2022-12-18T00:31:27;2.10;99.90
24410;DHT22;12543;53.364;-1.504;2022-12-18T00:33:55;2.10;99.90
24410;DHT22;12543;53.364;-1.504;2022-12-18T00:36:28;2.10;99.90
24410;DHT22;12543;53.364;-1.504;2022-12-18T00:38:58;2.00;99.90
24410;DHT22;12543;53.364;-1.504;2022-12-18T00:41:26;2.00;99.90
24410;DHT22;12543;53.364;-1.504;2022-12-18T00:44:14;2.00;99.90
24410;DHT22;12543;53.364;-1.504;2022-12-18T00:46:43;2.00;99.90
24410;DHT22;12543;53.364;-1.504;2022-12-18T00:49:12;1.90;99.90
24410;DHT22;12543;53.364;-1.504;2022-12-18T00:51:40;2.00;99.90
24410;DHT22;12543;53.364;-1.504;2022-12-18T00:54:07;2.00;99.90
24410;DHT22;12543;53.364;-1.504;2022-12-18T00:56:38;2.00;99.90
24410;DHT22;12543;53.364;-1.504;2022-12-18T00:59:16;2.00;99.90
24410;DHT22;12543;53.364;-1.504;2022-12-18T01:01:43;2.00;99.90
24410;DHT22;12543;53.364;-1.504;2022-12-18T01:04:11;2.00;99.90
24410;DHT22;12543;53.364;-1.504;2022-12-18T01:06:39;2.00;99.90
24410;DHT22;12543;53.364;-1.504;2022-12-18T01:09:06;2.00;99.90
24410;DHT22;12543;53.364;-1.504;2022-12-18T01:11:36;2.00;99.90
24410;DHT22;12543;53.364;-1.504;2022-12-18T01:14:03;2.00;99.90
24410;DHT22;12543;53.364;-1.504;2022-12-18T01:16:30;2.00;99.90
24410;DHT22;12543;53.364;-1.504;2022-12-18T01:18:59;2.00;99.90
24410;DHT22;12543;53.364;-1.504;2022-12-18T01:21:27;2.00;99.90
24410;DHT22;12543;53.364;-1.504;2022-12-18T01:23:55;1.90;99.90
24410;DHT22;12543;53.364;-1.504;2022-12-18T01:26:24;1.90;99.90
24410;DHT22;12543;53.364;-1.504;2022-12-18T01:28:53;1.90;99.90
24410;DHT22;12543;53.364;-1.504;2022-12-18T01:31:28;1.90;99.90
24410;DHT22;12543;53.364;-1.504;2022-12-18T01:33:56;1.90;99.90
24410;DHT22;12543;53.364;-1.504;2022-12-18T01:36:41;1.90;99.90
24410;DHT22;12543;53.364;-1.504;2022-12-18T01:39:11;1.90;99.90
24410;DHT22;12543;53.364;-1.504;2022-12-18T01:41:42;1.80;99.90
24410;DHT22;12543;53.364;-1.504;2022-12-18T01:50:22;1.80;99.90
24410;DHT22;12543;53.364;-1.504;2022-12-18T01:52:53;1.70;99.90
24410;DHT22;12543;53.364;-1.504;2022-12-18T01:55:24;1.70;99.90
24410;DHT22;12543;53.364;-1.504;2022-12-18T01:57:55;1.70;99.90
24410;DHT22;12543;53.364;-1.504;2022-12-18T02:00:24;1.70;99.90
24410;DHT22;12543;53.364;-1.504;2022-12-18T02:02:51;1.70;99.90
24410;DHT22;12543;53.364;-1.504;2022-12-18T02:05:46;1.70;99.90
24410;DHT22;12543;53.364;-1.504;2022-12-18T02:08:22;1.60;99.90
24410;DHT22;12543;53.364;-1.504;2022-12-18T02:11:22;1.60;99.90
24410;DHT22;12543;53.364;-1.504;2022-12-18T02:14:04;1.60;99.90
24410;DHT22;12543;53.364;-1.504;2022-12-18T02:16:46;1.60;99.90
24410;DHT22;12543;53.364;-1.504;2022-12-18T02:19:24;1.60;99.90
24410;DHT22;12543;53.364;-1.504;2022-12-18T02:22:15;1.60;99.90
24410;DHT22;12543;53.364;-1.504;2022-12-18T02:25:05;1.50;99.90
24410;DHT22;12543;53.364;-1.504;2022-12-18T02:27:35;1.50;99.90
24410;DHT22;12543;53.364;-1.504;2022-12-18T02:30:05;1.50;99.90
24410;DHT22;12543;53.364;-1.504;2022-12-18T02:32:39;1.50;99.90
24410;DHT22;12543;53.364;-1.504;2022-12-18T02:35:11;1.50;99.90
24410;DHT22;12543;53.364;-1.504;2022-12-18T02:37:42;1.40;99.90
24410;DHT22;12543;53.364;-1.504;2022-12-18T02:40:11;1.40;99.90
24410;DHT22;12543;53.364;-1.504;2022-12-18T02:42:39;1.40;99.90
24410;DHT22;12543;53.364;-1.504;2022-12-18T02:45:09;1.40;99.90
24410;DHT22;12543;53.364;-1.504;2022-12-18T02:47:39;1.30;99.90
24410;DHT22;12543;53.364;-1.504;2022-12-18T02:50:34;1.30;99.90
24410;DHT22;12543;53.364;-1.504;2022-12-18T02:58:38;1.30;99.90
24410;DHT22;12543;53.364;-1.504;2022-12-18T03:01:25;1.30;99.90
24410;DHT22;12543;53.364;-1.504;2022-12-18T03:06:30;1.30;99.90
24410;DHT22;12543;53.364;-1.504;2022-12-18T03:09:02;1.30;99.90
24410;DHT22;12543;53.364;-1.504;2022-12-18T03:11:33;1.30;99.90
24410;DHT22;12543;53.364;-1.504;2022-12-18T03:14:23;1.30;99.90
24410;DHT22;12543;53.364;-1.504;2022-12-18T03:16:54;1.30;99.90
24410;DHT22;12543;53.364;-1.504;2022-12-18T03:19:26;1.20;99.90
24410;DHT22;12543;53.364;-1.504;2022-12-18T03:21:59;1.30;99.90
24410;DHT22;12543;53.364;-1.504;2022-12-18T03:24:33;1.30;99.90
24410;DHT22;12543;53.364;-1.504;2022-12-18T03:27:03;1.20;99.90
24410;DHT22;12543;53.364;-1.504;2022-12-18T03:29:38;1.20;99.90
24410;DHT22;12543;53.364;-1.504;2022-12-18T03:32:23;1.20;99.90
24410;DHT22;12543;53.364;-1.504;2022-12-18T03:34:53;1.20;99.90
24410;DHT22;12543;53.364;-1.504;2022-12-18T03:37:24;1.20;99.90
24410;DHT22;12543;53.364;-1.504;2022-12-18T03:39:52;1.20;99.90
24410;DHT22;12543;53.364;-1.504;2022-12-18T03:42:41;1.20;99.90
24410;DHT22;12543;53.364;-1.504;2022-12-18T03:48:26;1.20;99.90
24410;DHT22;12543;53.364;-1.504;2022-12-18T03:51:05;1.20;99.90
24410;DHT22;12543;53.364;-1.504;2022-12-18T03:53:50;1.20;99.90
24410;DHT22;12543;53.364;-1.504;2022-12-18T03:56:25;1.10;99.90
24410;DHT22;12543;53.364;-1.504;2022-12-18T03:58:55;1.20;99.90
24410;DHT22;12543;53.364;-1.504;2022-12-18T04:01:37;1.10;99.90
24410;DHT22;12543;53.364;-1.504;2022-12-18T04:04:06;1.10;99.90
24410;DHT22;12543;53.364;-1.504;2022-12-18T04:06:37;1.10;99.90
24410;DHT22;12543;53.364;-1.504;2022-12-18T04:09:06;1.10;99.90
24410;DHT22;12543;53.364;-1.504;2022-12-18T04:11:39;1.00;99.90
24410;DHT22;12543;53.364;-1.504;2022-12-18T04:14:06;1.10;99.90
24410;DHT22;12543;53.364;-1.504;2022-12-18T04:16:35;1.00;99.90
24410;DHT22;12543;53.364;-1.504;2022-12-18T04:19:04;1.10;99.90
24410;DHT22;12543;53.364;-1.504;2022-12-18T04:21:37;1.00;99.90
24410;DHT22;12543;53.364;-1.504;2022-12-18T04:24:05;1.00;99.90
24410;DHT22;12543;53.364;-1.504;2022-12-18T04:26:35;1.00;99.90
24410;DHT22;12543;53.364;-1.504;2022-12-18T04:29:15;1.00;99.90
24410;DHT22;12543;53.364;-1.504;2022-12-18T04:31:42;1.00;99.90
24410;DHT22;12543;53.364;-1.504;2022-12-18T04:34:10;1.10;99.90
24410;DHT22;12543;53.364;-1.504;2022-12-18T04:36:43;1.10;99.90
24410;DHT22;12543;53.364;-1.504;2022-12-18T04:39:10;1.00;99.90
24410;DHT22;12543;53.364;-1.504;2022-12-18T04:41:37;1.10;99.90
24410;DHT22;12543;53.364;-1.504;2022-12-18T04:44:04;1.10;99.90
24410;DHT22;12543;53.364;-1.504;2022-12-18T04:46:34;1.10;99.90
24410;DHT22;12543;53.364;-1.504;2022-12-18T04:49:02;1.10;99.90
24410;DHT22;12543;53.364;-1.504;2022-12-18T04:51:28;1.10;99.90
24410;DHT22;12543;53.364;-1.504;2022-12-18T04:53:55;1.10;99.90
24410;DHT22;12543;53.364;-1.504;2022-12-18T04:56:23;1.10;99.90
24410;DHT22;12543;53.364;-1.504;2022-12-18T04:58:50;1.10;99.90
24410;DHT22;12543;53.364;-1.504;2022-12-18T05:01:19;1.00;99.90
24410;DHT22;12543;53.364;-1.504;2022-12-18T05:03:50;1.00;99.90
24410;DHT22;12543;53.364;-1.504;2022-12-18T05:06:17;1.00;99.90
24410;DHT22;12543;53.364;-1.504;2022-12-18T05:08:45;1.00;99.90
24410;DHT22;12543;53.364;-1.504;2022-12-18T05:11:14;1.00;99.90
24410;DHT22;12543;53.364;-1.504;2022-12-18T05:13:45;1.00;99.90
24410;DHT22;12543;53.364;-1.504;2022-12-18T05:16:14;1.00;99.90
24410;DHT22;12543;53.364;-1.504;2022-12-18T05:18:41;1.00;99.90
24410;DHT22;12543;53.364;-1.504;2022-12-18T05:21:08;1.00;99.90
24410;DHT22;12543;53.364;-1.504;2022-12-18T05:23:36;1.00;99.90
24410;DHT22;12543;53.364;-1.504;2022-12-18T05:26:05;1.00;99.90
24410;DHT22;12543;53.364;-1.504;2022-12-18T05:28:33;1.00;99.90
24410;DHT22;12543;53.364;-1.504;2022-12-18T05:31:01;1.10;99.90
24410;DHT22;12543;53.364;-1.504;2022-12-18T05:33:31;1.10;99.90
24410;DHT22;12543;53.364;-1.504;2022-12-18T05:36:00;1.10;99.90
24410;DHT22;12543;53.364;-1.504;2022-12-18T05:38:31;1.10;99.90
24410;DHT22;12543;53.364;-1.504;2022-12-18T05:40:58;1.20;99.90
24410;DHT22;12543;53.364;-1.504;2022-12-18T05:43:27;1.20;99.90
24410;DHT22;12543;53.364;-1.504;2022-12-18T05:45:54;1.20;99.90
24410;DHT22;12543;53.364;-1.504;2022-12-18T05:48:21;1.20;99.90
24410;DHT22;12543;53.364;-1.504;2022-12-18T05:50:49;1.10;99.90
24410;DHT22;12543;53.364;-1.504;2022-12-18T05:53:19;1.10;99.90
24410;DHT22;12543;53.364;-1.504;2022-12-18T05:55:46;1.10;99.90
24410;DHT22;12543;53.364;-1.504;2022-12-18T05:58:15;1.10;99.90
24410;DHT22;12543;53.364;-1.504;2022-12-18T06:00:44;1.10;99.90
24410;DHT22;12543;53.364;-1.504;2022-12-18T06:03:18;1.00;99.90
24410;DHT22;12543;53.364;-1.504;2022-12-18T06:05:46;1.00;99.90
24410;DHT22;12543;53.364;-1.504;2022-12-18T06:08:13;1.00;99.90
24410;DHT22;12543;53.364;-1.504;2022-12-18T06:10:41;1.00;99.90
24410;DHT22;12543;53.364;-1.504;2022-12-18T06:13:08;1.00;99.90
24410;DHT22;12543;53.364;-1.504;2022-12-18T06:15:38;1.00;99.90
24410;DHT22;12543;53.364;-1.504;2022-12-18T06:18:05;1.00;99.90
24410;DHT22;12543;53.364;-1.504;2022-12-18T06:20:32;1.00;99.90
24410;DHT22;12543;53.364;-1.504;2022-12-18T06:23:00;1.00;99.90
24410;DHT22;12543;53.364;-1.504;2022-12-18T06:25:27;1.00;99.90
24410;DHT22;12543;53.364;-1.504;2022-12-18T06:27:54;0.90;99.90
24410;DHT22;12543;53.364;-1.504;2022-12-18T06:30:22;0.90;99.90
24410;DHT22;12543;53.364;-1.504;2022-12-18T06:32:49;0.90;99.90
24410;DHT22;12543;53.364;-1.504;2022-12-18T06:35:23;0.90;99.90
24410;DHT22;12543;53.364;-1.504;2022-12-18T06:37:50;0.90;99.90
24410;DHT22;12543;53.364;-1.504;2022-12-18T06:40:18;0.90;99.90
24410;DHT22;12543;53.364;-1.504;2022-12-18T06:42:45;0.90;99.90
24410;DHT22;12543;53.364;-1.504;2022-12-18T06:45:12;0.90;99.90
24410;DHT22;12543;53.364;-1.504;2022-12-18T06:47:40;0.90;99.90
24410;DHT22;12543;53.364;-1.504;2022-12-18T06:50:07;0.90;99.90
24410;DHT22;12543;53.364;-1.504;2022-12-18T06:52:34;0.90;99.90
24410;DHT22;12543;53.364;-1.504;2022-12-18T06:55:01;0.90;99.90
24410;DHT22;12543;53.364;-1.504;2022-12-18T06:57:29;0.90;99.90
24410;DHT22;12543;53.364;-1.504;2022-12-18T06:59:55;0.90;99.90
24410;DHT22;12543;53.364;-1.504;2022-12-18T07:02:22;0.90;99.90
24410;DHT22;12543;53.364;-1.504;2022-12-18T07:04:50;0.90;99.90
24410;DHT22;12543;53.364;-1.504;2022-12-18T07:07:17;0.90;99.90
24410;DHT22;12543;53.364;-1.504;2022-12-18T07:09:44;0.90;99.90
24410;DHT22;12543;53.364;-1.504;2022-12-18T07:12:11;0.90;99.90
24410;DHT22;12543;53.364;-1.504;2022-12-18T07:14:38;0.90;99.90
24410;DHT22;12543;53.364;-1.504;2022-12-18T07:17:04;0.90;99.90
24410;DHT22;12543;53.364;-1.504;2022-12-18T07:19:33;1.00;99.90
24410;DHT22;12543;53.364;-1.504;2022-12-18T07:22:00;1.00;99.90
24410;DHT22;12543;53.364;-1.504;2022-12-18T07:24:27;1.00;99.90
24410;DHT22;12543;53.364;-1.504;2022-12-18T07:26:55;1.00;99.90
24410;DHT22;12543;53.364;-1.504;2022-12-18T07:29:22;1.00;99.90
24410;DHT22;12543;53.364;-1.504;2022-12-18T07:31:49;1.00;99.90
24410;DHT22;12543;53.364;-1.504;2022-12-18T07:34:16;1.00;99.90
24410;DHT22;12543;53.364;-1.504;2022-12-18T07:36:43;1.00;99.90
24410;DHT22;12543;53.364;-1.504;2022-12-18T07:39:11;0.90;99.90
24410;DHT22;12543;53.364;-1.504;2022-12-18T07:41:38;0.90;99.90
24410;DHT22;12543;53.364;-1.504;2022-12-18T07:44:15;0.90;99.90
24410;DHT22;12543;53.364;-1.504;2022-12-18T07:46:42;0.90;99.90
24410;DHT22;12543;53.364;-1.504;2022-12-18T07:49:09;0.90;99.90
24410;DHT22;12543;53.364;-1.504;2022-12-18T07:51:36;0.90;99.90
24410;DHT22;12543;53.364;-1.504;2022-12-18T07:54:03;0.90;99.90
24410;DHT22;12543;53.364;-1.504;2022-12-18T07:56:31;0.90;99.90
24410;DHT22;12543;53.364;-1.504;2022-12-18T07:58:58;0.90;99.90
24410;DHT22;12543;53.364;-1.504;2022-12-18T08:01:26;0.90;99.90
24410;DHT22;12543;53.364;-1.504;2022-12-18T08:03:54;0.90;99.90
24410;DHT22;12543;53.364;-1.504;2022-12-18T08:06:21;0.90;99.90
24410;DHT22;12543;53.364;-1.504;2022-12-18T08:08:54;0.80;99.90
24410;DHT22;12543;53.364;-1.504;2022-12-18T08:11:23;0.80;99.90
24410;DHT22;12543;53.364;-1.504;2022-12-18T08:13:51;0.80;99.90
24410;DHT22;12543;53.364;-1.504;2022-12-18T08:16:18;0.80;99.90
24410;DHT22;12543;53.364;-1.504;2022-12-18T08:18:46;0.80;99.90
24410;DHT22;12543;53.364;-1.504;2022-12-18T08:21:22;0.80;99.90
24410;DHT22;12543;53.364;-1.504;2022-12-18T08:23:50;0.80;99.90
24410;DHT22;12543;53.364;-1.504;2022-12-18T08:26:19;0.80;99.90
24410;DHT22;12543;53.364;-1.504;2022-12-18T08:28:47;0.80;99.90
24410;DHT22;12543;53.364;-1.504;2022-12-18T08:31:15;0.80;99.90
24410;DHT22;12543;53.364;-1.504;2022-12-18T08:33:42;0.80;99.90
24410;DHT22;12543;53.364;-1.504;2022-12-18T08:36:10;0.80;99.90
24410;DHT22;12543;53.364;-1.504;2022-12-18T08:38:37;0.70;99.90
24410;DHT22;12543;53.364;-1.504;2022-12-18T08:41:10;0.70;99.90
24410;DHT22;12543;53.364;-1.504;2022-12-18T08:43:37;0.80;99.90
24410;DHT22;12543;53.364;-1.504;2022-12-18T08:46:25;0.80;99.90
24410;DHT22;12543;53.364;-1.504;2022-12-18T08:48:53;0.80;99.90
24410;DHT22;12543;53.364;-1.504;2022-12-18T08:51:21;0.80;99.90
24410;DHT22;12543;53.364;-1.504;2022-12-18T08:53:48;0.80;99.90
24410;DHT22;12543;53.364;-1.504;2022-12-18T08:56:15;0.80;99.90
24410;DHT22;12543;53.364;-1.504;2022-12-18T08:58:42;0.80;99.90
24410;DHT22;12543;53.364;-1.504;2022-12-18T09:01:11;0.80;99.90
24410;DHT22;12543;53.364;-1.504;2022-12-18T09:03:39;0.80;99.90
24410;DHT22;12543;53.364;-1.504;2022-12-18T09:06:07;0.80;99.90
24410;DHT22;12543;53.364;-1.504;2022-12-18T09:08:35;0.80;99.90
24410;DHT22;12543;53.364;-1.504;2022-12-18T09:11:04;0.90;99.90
24410;DHT22;12543;53.364;-1.504;2022-12-18T09:13:31;0.90;99.90
24410;DHT22;12543;53.364;-1.504;2022-12-18T09:15:58;0.80;99.90
24410;DHT22;12543;53.364;-1.504;2022-12-18T09:18:25;0.90;99.90
24410;DHT22;12543;53.364;-1.504;2022-12-18T09:20:52;0.80;99.90
24410;DHT22;12543;53.364;-1.504;2022-12-18T09:23:20;0.80;99.90
24410;DHT22;12543;53.364;-1.504;2022-12-18T09:25:47;0.80;99.90
24410;DHT22;12543;53.364;-1.504;2022-12-18T09:28:17;0.90;99.90
24410;DHT22;12543;53.364;-1.504;2022-12-18T09:30:49;0.90;99.90
24410;DHT22;12543;53.364;-1.504;2022-12-18T09:33:17;0.90;99.90
24410;DHT22;12543;53.364;-1.504;2022-12-18T09:35:45;0.90;99.90
24410;DHT22;12543;53.364;-1.504;2022-12-18T09:38:15;0.90;99.90
24410;DHT22;12543;53.364;-1.504;2022-12-18T09:40:49;1.00;99.90
24410;DHT22;12543;53.364;-1.504;2022-12-18T09:43:30;1.00;99.90
24410;DHT22;12543;53.364;-1.504;2022-12-18T09:46:04;1.00;99.90
24410;DHT22;12543;53.364;-1.504;2022-12-18T09:48:35;0.90;99.90
24410;DHT22;12543;53.364;-1.504;2022-12-18T09:51:16;0.90;99.90
24410;DHT22;12543;53.364;-1.504;2022-12-18T09:53:51;0.90;99.90
24410;DHT22;12543;53.364;-1.504;2022-12-18T09:56:21;0.90;99.90
24410;DHT22;12543;53.364;-1.504;2022-12-18T09:58:57;0.90;99.90
24410;DHT22;12543;53.364;-1.504;2022-12-18T10:01:26;0.90;99.90
24410;DHT22;12543;53.364;-1.504;2022-12-18T10:04:08;0.90;99.90
24410;DHT22;12543;53.364;-1.504;2022-12-18T10:06:44;0.80;99.90
24410;DHT22;12543;53.364;-1.504;2022-12-18T10:09:29;0.90;99.90
24410;DHT22;12543;53.364;-1.504;2022-12-18T10:15:04;0.90;99.90
24410;DHT22;12543;53.364;-1.504;2022-12-18T10:17:40;0.90;99.90
24410;DHT22;12543;53.364;-1.504;2022-12-18T10:28:00;0.90;99.90
24410;DHT22;12543;53.364;-1.504;2022-12-18T10:30:33;1.00;99.90
24410;DHT22;12543;53.364;-1.504;2022-12-18T10:33:02;1.00;99.90
24410;DHT22;12543;53.364;-1.504;2022-12-18T10:35:29;1.00;99.90
24410;DHT22;12543;53.364;-1.504;2022-12-18T10:43:19;1.00;99.90
24410;DHT22;12543;53.364;-1.504;2022-12-18T10:48:40;1.00;99.90
24410;DHT22;12543;53.364;-1.504;2022-12-18T10:51:33;1.00;99.90
24410;DHT22;12543;53.364;-1.504;2022-12-18T10:54:05;1.10;99.90
24410;DHT22;12543;53.364;-1.504;2022-12-18T10:56:36;1.10;99.90
24410;DHT22;12543;53.364;-1.504;2022-12-18T10:59:07;1.10;99.90
24410;DHT22;12543;53.364;-1.504;2022-12-18T11:01:55;1.10;99.90
24410;DHT22;12543;53.364;-1.504;2022-12-18T11:04:28;1.10;99.90
24410;DHT22;12543;53.364;-1.504;2022-12-18T11:07:03;1.10;99.90
24410;DHT22;12543;53.364;-1.504;2022-12-18T11:09:32;1.10;99.90
24410;DHT22;12543;53.364;-1.504;2022-12-18T11:12:08;1.10;99.90
24410;DHT22;12543;53.364;-1.504;2022-12-18T11:17:29;1.20;99.90
24410;DHT22;12543;53.364;-1.504;2022-12-18T11:19:59;1.20;99.90
24410;DHT22;12543;53.364;-1.504;2022-12-18T11:22:29;1.20;99.90
24410;DHT22;12543;53.364;-1.504;2022-12-18T11:28:03;1.20;99.90
24410;DHT22;12543;53.364;-1.504;2022-12-18T11:30:35;1.20;99.90
24410;DHT22;12543;53.364;-1.504;2022-12-18T11:33:07;1.20;99.90
24410;DHT22;12543;53.364;-1.504;2022-12-18T11:35:52;1.20;99.90
24410;DHT22;12543;53.364;-1.504;2022-12-18T11:38:26;1.20;99.90
24410;DHT22;12543;53.364;-1.504;2022-12-18T11:41:05;1.30;99.90
24410;DHT22;12543;53.364;-1.504;2022-12-18T11:43:56;1.30;99.90
24410;DHT22;12543;53.364;-1.504;2022-12-18T11:46:38;1.30;99.90
24410;DHT22;12543;53.364;-1.504;2022-12-18T11:49:11;1.30;99.90
24410;DHT22;12543;53.364;-1.504;2022-12-18T11:51:59;1.40;99.90
24410;DHT22;12543;53.364;-1.504;2022-12-18T11:54:27;1.40;99.90
24410;DHT22;12543;53.364;-1.504;2022-12-18T12:02:41;1.50;99.90
24410;DHT22;12543;53.364;-1.504;2022-12-18T12:08:06;1.50;99.90
24410;DHT22;12543;53.364;-1.504;2022-12-18T12:19:50;1.50;99.90
24410;DHT22;12543;53.364;-1.504;2022-12-18T12:22:48;1.60;99.90
24410;DHT22;12543;53.364;-1.504;2022-12-18T12:25:33;1.60;99.90
24410;DHT22;12543;53.364;-1.504;2022-12-18T12:28:32;1.60;99.90
24410;DHT22;12543;53.364;-1.504;2022-12-18T12:36:33;1.60;99.90
24410;DHT22;12543;53.364;-1.504;2022-12-18T12:39:16;1.60;99.90
24410;DHT22;12543;53.364;-1.504;2022-12-18T12:41:45;1.60;99.90
24410;DHT22;12543;53.364;-1.504;2022-12-18T12:44:45;1.70;99.90
24410;DHT22;12543;53.364;-1.504;2022-12-18T12:47:38;1.70;99.90
24410;DHT22;12543;53.364;-1.504;2022-12-18T12:50:13;1.70;99.90
24410;DHT22;12543;53.364;-1.504;2022-12-18T12:52:47;1.70;99.90
24410;DHT22;12543;53.364;-1.504;2022-12-18T12:55:26;1.70;99.90
24410;DHT22;12543;53.364;-1.504;2022-12-18T13:01:12;1.80;99.90
24410;DHT22;12543;53.364;-1.504;2022-12-18T13:04:10;1.80;99.90
24410;DHT22;12543;53.364;-1.504;2022-12-18T13:07:08;1.70;99.90
24410;DHT22;12543;53.364;-1.504;2022-12-18T13:13:05;1.80;99.90
24410;DHT22;12543;53.364;-1.504;2022-12-18T13:16:07;1.70;99.90
24410;DHT22;12543;53.364;-1.504;2022-12-18T13:18:35;1.80;99.90
24410;DHT22;12543;53.364;-1.504;2022-12-18T13:21:15;1.80;99.90
24410;DHT22;12543;53.364;-1.504;2022-12-18T13:23:47;1.80;99.90
24410;DHT22;12543;53.364;-1.504;2022-12-18T13:28:54;1.80;99.90
24410;DHT22;12543;53.364;-1.504;2022-12-18T13:34:23;1.80;99.90
24410;DHT22;12543;53.364;-1.504;2022-12-18T13:36:55;1.80;99.90
24410;DHT22;12543;53.364;-1.504;2022-12-18T13:39:25;1.80;99.90
24410;DHT22;12543;53.364;-1.504;2022-12-18T13:44:39;1.80;99.90
24410;DHT22;12543;53.364;-1.504;2022-12-18T13:47:34;1.90;99.90
24410;DHT22;12543;53.364;-1.504;2022-12-18T13:50:22;1.90;99.90
24410;DHT22;12543;53.364;-1.504;2022-12-18T13:52:51;1.90;99.90
24410;DHT22;12543;53.364;-1.504;2022-12-18T13:55:20;1.90;99.90
24410;DHT22;12543;53.364;-1.504;2022-12-18T13:57:48;1.90;99.90
24410;DHT22;12543;53.364;-1.504;2022-12-18T14:00:25;1.90;99.90
24410;DHT22;12543;53.364;-1.504;2022-12-18T14:02:52;2.00;99.90
24410;DHT22;12543;53.364;-1.504;2022-12-18T14:05:24;1.90;99.90
24410;DHT22;12543;53.364;-1.504;2022-12-18T14:07:55;2.00;99.90
24410;DHT22;12543;53.364;-1.504;2022-12-18T14:10:27;2.00;99.90
24410;DHT22;12543;53.364;-1.504;2022-12-18T14:13:26;2.00;99.90
24410;DHT22;12543;53.364;-1.504;2022-12-18T14:15:55;2.00;99.90
24410;DHT22;12543;53.364;-1.504;2022-12-18T14:18:54;2.00;99.90
24410;DHT22;12543;53.364;-1.504;2022-12-18T14:21:37;1.90;99.90
24410;DHT22;12543;53.364;-1.504;2022-12-18T14:26:35;1.90;99.90
24410;DHT22;12543;53.364;-1.504;2022-12-18T14:29:35;1.90;99.90
24410;DHT22;12543;53.364;-1.504;2022-12-18T14:32:11;1.90;99.90
24410;DHT22;12543;53.364;-1.504;2022-12-18T14:37:20;1.90;99.90
24410;DHT22;12543;53.364;-1.504;2022-12-18T14:42:21;1.90;99.90
24410;DHT22;12543;53.364;-1.504;2022-12-18T14:44:48;1.90;99.90
24410;DHT22;12543;53.364;-1.504;2022-12-18T14:47:35;1.80;99.90
24410;DHT22;12543;53.364;-1.504;2022-12-18T14:50:02;1.80;99.90
24410;DHT22;12543;53.364;-1.504;2022-12-18T14:52:31;1.80;99.90
24410;DHT22;12543;53.364;-1.504;2022-12-18T14:54:58;1.80;99.90
24410;DHT22;12543;53.364;-1.504;2022-12-18T14:57:30;1.80;99.90
24410;DHT22;12543;53.364;-1.504;2022-12-18T15:00:07;1.80;99.90
24410;DHT22;12543;53.364;-1.504;2022-12-18T15:02:41;1.80;99.90
24410;DHT22;12543;53.364;-1.504;2022-12-18T15:07:49;1.80;99.90
24410;DHT22;12543;53.364;-1.504;2022-12-18T15:10:17;1.80;99.90
24410;DHT22;12543;53.364;-1.504;2022-12-18T15:18:00;1.90;99.90
24410;DHT22;12543;53.364;-1.504;2022-12-18T15:20:27;1.90;99.90
24410;DHT22;12543;53.364;-1.504;2022-12-18T15:22:58;1.90;99.90
24410;DHT22;12543;53.364;-1.504;2022-12-18T15:25:35;1.90;99.90
24410;DHT22;12543;53.364;-1.504;2022-12-18T15:28:04;1.90;99.90
24410;DHT22;12543;53.364;-1.504;2022-12-18T15:30:58;1.90;99.90
24410;DHT22;12543;53.364;-1.504;2022-12-18T15:33:30;1.90;99.90
24410;DHT22;12543;53.364;-1.504;2022-12-18T15:36:00;1.90;99.90
24410;DHT22;12543;53.364;-1.504;2022-12-18T15:38:27;1.90;99.90
24410;DHT22;12543;53.364;-1.504;2022-12-18T15:40:54;1.90;99.90
24410;DHT22;12543;53.364;-1.504;2022-12-18T15:43:22;1.90;99.90
24410;DHT22;12543;53.364;-1.504;2022-12-18T15:46:09;1.90;99.90
24410;DHT22;12543;53.364;-1.504;2022-12-18T15:48:40;1.90;99.90
24410;DHT22;12543;53.364;-1.504;2022-12-18T15:51:20;1.90;99.90
24410;DHT22;12543;53.364;-1.504;2022-12-18T15:53:50;2.00;99.90
24410;DHT22;12543;53.364;-1.504;2022-12-18T15:56:17;2.00;99.90
24410;DHT22;12543;53.364;-1.504;2022-12-18T15:59:12;2.00;99.90
24410;DHT22;12543;53.364;-1.504;2022-12-18T16:01:41;2.00;99.90
24410;DHT22;12543;53.364;-1.504;2022-12-18T16:04:12;2.00;99.90
24410;DHT22;12543;53.364;-1.504;2022-12-18T16:06:40;2.00;99.90
24410;DHT22;12543;53.364;-1.504;2022-12-18T16:09:27;2.00;99.90
24410;DHT22;12543;53.364;-1.504;2022-12-18T16:11:54;2.00;99.90
24410;DHT22;12543;53.364;-1.504;2022-12-18T16:14:27;2.00;99.90
24410;DHT22;12543;53.364;-1.504;2022-12-18T16:17:00;2.00;99.90
24410;DHT22;12543;53.364;-1.504;2022-12-18T16:19:28;2.00;99.90
24410;DHT22;12543;53.364;-1.504;2022-12-18T16:21:57;2.00;99.90
24410;DHT22;12543;53.364;-1.504;2022-12-18T16:24:26;2.10;99.90
24410;DHT22;12543;53.364;-1.504;2022-12-18T16:26:55;2.10;99.90
24410;DHT22;12543;53.364;-1.504;2022-12-18T16:29:23;2.10;99.90
24410;DHT22;12543;53.364;-1.504;2022-12-18T16:31:57;2.10;99.90
24410;DHT22;12543;53.364;-1.504;2022-12-18T16:34:30;2.10;99.90
24410;DHT22;12543;53.364;-1.504;2022-12-18T16:37:04;2.10;99.90
24410;DHT22;12543;53.364;-1.504;2022-12-18T16:39:36;2.20;99.90
24410;DHT22;12543;53.364;-1.504;2022-12-18T16:42:15;2.20;99.90
24410;DHT22;12543;53.364;-1.504;2022-12-18T16:44:43;2.20;99.90
24410;DHT22;12543;53.364;-1.504;2022-12-18T16:47:11;2.20;99.90
24410;DHT22;12543;53.364;-1.504;2022-12-18T16:49:41;2.20;99.90
24410;DHT22;12543;53.364;-1.504;2022-12-18T16:52:09;2.20;99.90
24410;DHT22;12543;53.364;-1.504;2022-12-18T16:54:36;2.20;99.90
24410;DHT22;12543;53.364;-1.504;2022-12-18T16:57:03;2.20;99.90
24410;DHT22;12543;53.364;-1.504;2022-12-18T16:59:33;2.20;99.90
24410;DHT22;12543;53.364;-1.504;2022-12-18T17:02:02;2.30;99.90
24410;DHT22;12543;53.364;-1.504;2022-12-18T17:04:29;2.30;99.90
24410;DHT22;12543;53.364;-1.504;2022-12-18T17:06:56;2.30;99.90
24410;DHT22;12543;53.364;-1.504;2022-12-18T17:09:23;2.30;99.90
24410;DHT22;12543;53.364;-1.504;2022-12-18T17:11:52;2.30;99.90
24410;DHT22;12543;53.364;-1.504;2022-12-18T17:14:21;2.30;99.90
24410;DHT22;12543;53.364;-1.504;2022-12-18T17:16:48;2.30;99.90
24410;DHT22;12543;53.364;-1.504;2022-12-18T17:19:33;2.40;99.90
24410;DHT22;12543;53.364;-1.504;2022-12-18T17:22:00;2.40;99.90
24410;DHT22;12543;53.364;-1.504;2022-12-18T17:24:28;2.40;99.90
24410;DHT22;12543;53.364;-1.504;2022-12-18T17:27:01;2.40;99.90
24410;DHT22;12543;53.364;-1.504;2022-12-18T17:29:28;2.40;99.90
24410;DHT22;12543;53.364;-1.504;2022-12-18T17:31:55;2.50;99.90
24410;DHT22;12543;53.364;-1.504;2022-12-18T17:34:24;2.50;99.90
24410;DHT22;12543;53.364;-1.504;2022-12-18T17:36:51;2.50;99.90